createdAt,value
2023-03-26T00:01:33.712Z,9.80
2023-03-26T00:04:01.302Z,9.73
2023-03-26T00:06:36.873Z,9.73
2023-03-26T00:09:06.628Z,9.70
2023-03-26T00:11:34.179Z,9.63
2023-03-26T00:14:02.707Z,9.63
2023-03-26T00:16:32.093Z,9.59
2023-03-26T00:19:01.400Z,9.67
2023-03-26T00:21:30.602Z,9.62
2023-03-26T00:24:07.366Z,9.60
2023-03-26T00:26:37.649Z,9.58
2023-03-26T00:29:06.922Z,9.55
2023-03-26T00:31:34.965Z,9.49
2023-03-26T00:34:03.916Z,9.43
2023-03-26T00:36:32.103Z,9.38
2023-03-26T00:38:59.177Z,9.32
2023-03-26T00:41:30.943Z,9.24
2023-03-26T00:43:59.823Z,9.20
2023-03-26T00:46:30.597Z,9.17
2023-03-26T00:48:58.993Z,9.20
2023-03-26T00:51:27.828Z,9.13
2023-03-26T00:53:55.852Z,9.13
2023-03-26T00:56:22.932Z,8.98
2023-03-26T00:58:50.379Z,8.97
2023-03-26T01:01:28.633Z,8.95
2023-03-26T01:04:07.451Z,8.90
2023-03-26T01:06:42.034Z,8.83
2023-03-26T01:09:19.701Z,8.87
2023-03-26T01:11:47.562Z,8.83
2023-03-26T01:14:32.536Z,8.89
2023-03-26T01:17:03.811Z,8.84
2023-03-26T01:20:12.288Z,8.84
2023-03-26T01:22:45.861Z,8.82
2023-03-26T01:25:13.123Z,8.79
2023-03-26T01:27:47.259Z,8.82
2023-03-26T01:30:42.414Z,8.82
2023-03-26T01:33:52.306Z,8.82
2023-03-26T01:36:38.090Z,8.84
2023-03-26T01:39:31.826Z,8.83
2023-03-26T01:42:08.333Z,8.85
2023-03-26T01:44:49.779Z,8.88
2023-03-26T01:47:19.309Z,8.92
2023-03-26T01:49:46.380Z,8.95
2023-03-26T01:52:25.152Z,8.98
2023-03-26T01:54:56.797Z,8.98
2023-03-26T01:57:51.626Z,9.03
2023-03-26T02:00:25.668Z,9.05
2023-03-26T02:03:22.623Z,9.01
2023-03-26T02:06:10.088Z,9.04
2023-03-26T02:08:49.200Z,9.06
2023-03-26T02:11:16.680Z,9.06
2023-03-26T02:13:46.337Z,9.06
2023-03-26T02:16:18.984Z,9.08
2023-03-26T02:18:51.309Z,9.14
2023-03-26T02:21:21.656Z,9.12
2023-03-26T02:24:03.046Z,9.12
2023-03-26T02:26:33.912Z,9.13
2023-03-26T02:29:01.951Z,9.17
2023-03-26T02:31:30.322Z,9.21
2023-03-26T02:33:57.431Z,9.27
2023-03-26T02:36:27.865Z,9.27
2023-03-26T02:38:58.003Z,9.29
2023-03-26T02:41:25.171Z,9.32
2023-03-26T02:43:52.265Z,9.29
2023-03-26T02:46:19.332Z,9.30
2023-03-26T02:48:46.312Z,9.29
2023-03-26T02:51:13.291Z,9.34
2023-03-26T02:53:41.346Z,9.38
2023-03-26T02:56:10.988Z,9.38
2023-03-26T02:58:39.046Z,9.45
2023-03-26T03:01:06.097Z,9.43
2023-03-26T03:03:34.520Z,9.44
2023-03-26T03:06:01.663Z,9.42
2023-03-26T03:08:29.315Z,9.42
2023-03-26T03:11:03.045Z,9.44
2023-03-26T03:13:30.281Z,9.47
2023-03-26T03:15:57.466Z,9.50
2023-03-26T03:18:24.679Z,9.48
2023-03-26T03:20:52.001Z,9.49
2023-03-26T03:23:19.023Z,9.49
2023-03-26T03:25:46.200Z,9.47
2023-03-26T03:28:14.017Z,9.49
2023-03-26T03:30:41.810Z,9.47
2023-03-26T03:33:08.904Z,9.43
2023-03-26T03:35:35.948Z,9.44
2023-03-26T03:38:03.095Z,9.46
2023-03-26T03:40:30.075Z,9.45
2023-03-26T03:42:57.136Z,9.43
2023-03-26T03:45:24.128Z,9.40
2023-03-26T03:47:51.181Z,9.38
2023-03-26T03:50:18.212Z,9.40
2023-03-26T03:52:45.593Z,9.39
2023-03-26T03:58:01.475Z,9.40
2023-03-26T04:00:28.447Z,9.40
2023-03-26T04:02:56.383Z,9.39
2023-03-26T04:05:23.654Z,9.39
2023-03-26T04:07:50.704Z,9.39
2023-03-26T04:10:17.823Z,9.38
2023-03-26T04:12:44.928Z,9.38
2023-03-26T04:15:11.931Z,9.37
2023-03-26T04:17:42.640Z,9.43
2023-03-26T04:20:15.963Z,9.39
2023-03-26T04:22:44.404Z,9.44
2023-03-26T04:25:13.407Z,9.46
2023-03-26T04:27:41.813Z,9.44
2023-03-26T04:30:15.109Z,9.45
2023-03-26T04:32:43.103Z,9.45
2023-03-26T04:35:16.647Z,9.44
2023-03-26T04:37:46.194Z,9.45
2023-03-26T04:40:20.650Z,9.45
2023-03-26T04:42:48.076Z,9.42
2023-03-26T04:45:22.469Z,9.45
2023-03-26T04:47:50.663Z,9.43
2023-03-26T04:50:18.032Z,9.43
2023-03-26T04:52:45.582Z,9.46
2023-03-26T04:55:33.251Z,9.45
2023-03-26T04:58:03.429Z,9.45
2023-03-26T05:00:30.464Z,9.47
2023-03-26T05:03:01.612Z,9.46
2023-03-26T05:05:29.883Z,9.45
2023-03-26T05:07:56.894Z,9.38
2023-03-26T05:10:24.117Z,9.38
2023-03-26T05:12:51.263Z,9.43
2023-03-26T05:15:18.328Z,9.39
2023-03-26T05:17:46.444Z,9.44
2023-03-26T05:20:37.445Z,9.41
2023-03-26T05:23:04.418Z,9.42
2023-03-26T05:25:31.742Z,9.39
2023-03-26T05:27:58.713Z,9.38
2023-03-26T05:30:25.996Z,9.39
2023-03-26T05:32:53.216Z,9.38
2023-03-26T05:35:21.810Z,9.38
2023-03-26T05:37:51.484Z,9.44
2023-03-26T05:40:23.092Z,9.42
2023-03-26T05:42:51.365Z,9.42
2023-03-26T05:45:18.511Z,9.40
2023-03-26T05:47:45.736Z,9.38
2023-03-26T05:50:12.814Z,9.38
2023-03-26T05:52:40.076Z,9.39
2023-03-26T05:55:08.321Z,9.38
2023-03-26T05:57:35.627Z,9.39
2023-03-26T06:00:04.708Z,9.39
2023-03-26T06:02:31.760Z,9.42
2023-03-26T06:04:58.819Z,9.41
2023-03-26T06:07:27.105Z,9.40
2023-03-26T06:09:54.498Z,9.47
2023-03-26T06:12:22.004Z,9.45
2023-03-26T06:14:48.963Z,9.41
2023-03-26T06:17:16.041Z,9.44
2023-03-26T06:19:43.021Z,9.40
2023-03-26T06:22:10.224Z,9.46
2023-03-26T06:24:37.181Z,9.44
2023-03-26T06:27:04.220Z,9.46
2023-03-26T06:29:31.203Z,9.44
2023-03-26T06:32:06.143Z,9.42
2023-03-26T06:34:39.706Z,9.43
2023-03-26T06:37:06.810Z,9.45
2023-03-26T06:39:33.750Z,9.45
2023-03-26T06:42:00.769Z,9.46
2023-03-26T06:44:27.916Z,9.41
2023-03-26T06:46:54.939Z,9.44
2023-03-26T06:49:21.962Z,9.44
2023-03-26T06:51:48.901Z,9.40
2023-03-26T06:54:16.735Z,9.46
2023-03-26T06:56:44.848Z,9.43
2023-03-26T06:59:11.814Z,9.46
2023-03-26T07:01:38.932Z,9.46
2023-03-26T07:04:06.081Z,9.45
2023-03-26T07:06:33.290Z,9.45
2023-03-26T07:09:00.316Z,9.47
2023-03-26T07:11:27.458Z,9.47
2023-03-26T07:13:56.361Z,9.47
2023-03-26T07:16:23.702Z,9.48
2023-03-26T07:18:51.345Z,9.48
2023-03-26T07:21:19.902Z,9.47
2023-03-26T07:23:47.979Z,9.49
2023-03-26T07:26:48.266Z,9.47
2023-03-26T07:29:27.974Z,9.49
2023-03-26T07:32:21.217Z,9.51
2023-03-26T07:35:16.540Z,9.48
2023-03-26T07:38:21.302Z,9.50
2023-03-26T07:41:10.546Z,9.51
2023-03-26T07:44:25.343Z,9.53
2023-03-26T07:46:53.389Z,9.56
2023-03-26T07:49:21.570Z,9.54
2023-03-26T07:51:49.725Z,9.57
2023-03-26T07:54:17.072Z,9.56
2023-03-26T07:57:08.984Z,9.56
2023-03-26T07:59:59.552Z,9.61
2023-03-26T08:03:10.133Z,9.60
2023-03-26T08:05:50.444Z,9.63
2023-03-26T08:08:46.505Z,9.61
2023-03-26T08:11:34.458Z,9.67
2023-03-26T08:14:25.758Z,9.69
2023-03-26T08:17:17.395Z,9.72
2023-03-26T08:20:07.769Z,9.73
2023-03-26T08:22:41.194Z,9.72
2023-03-26T08:25:34.829Z,9.74
2023-03-26T08:28:35.453Z,9.79
2023-03-26T08:31:03.061Z,9.77
2023-03-26T08:33:31.110Z,9.77
2023-03-26T08:35:58.244Z,9.70
2023-03-26T08:38:25.252Z,9.71
2023-03-26T08:41:40.374Z,9.76
2023-03-26T08:44:27.593Z,9.80
2023-03-26T08:47:34.294Z,9.86
2023-03-26T08:50:26.180Z,9.82
2023-03-26T08:53:20.507Z,9.80
2023-03-26T08:56:41.288Z,9.86
2023-03-26T08:59:44.868Z,9.79
2023-03-26T09:02:51.746Z,9.79
2023-03-26T09:06:16.971Z,9.84
2023-03-26T09:08:59.225Z,9.78
2023-03-26T09:11:35.949Z,9.84
2023-03-26T09:14:36.487Z,9.88
2023-03-26T09:17:39.738Z,9.92
2023-03-26T09:20:48.317Z,9.89
2023-03-26T09:23:29.058Z,9.96
2023-03-26T09:26:15.037Z,9.95
2023-03-26T09:28:44.989Z,9.95
2023-03-26T09:31:48.545Z,9.99
2023-03-26T09:34:43.309Z,10.06
2023-03-26T09:37:56.140Z,10.05
2023-03-26T09:41:13.603Z,10.04
2023-03-26T09:44:38.650Z,10.02
2023-03-26T09:47:57.694Z,10.06
2023-03-26T09:50:52.600Z,10.04
2023-03-26T09:53:19.686Z,10.03
2023-03-26T09:56:23.543Z,10.04
2023-03-26T09:59:16.883Z,10.05
2023-03-26T10:02:46.264Z,10.03
2023-03-26T10:05:45.130Z,10.09
2023-03-26T10:08:35.418Z,10.00
2023-03-26T10:11:26.973Z,10.00
2023-03-26T10:14:21.471Z,10.03
2023-03-26T10:17:28.461Z,10.08
2023-03-26T10:20:33.589Z,9.97
2023-03-26T10:23:06.616Z,9.92
2023-03-26T10:26:06.006Z,10.07
2023-03-26T10:28:52.205Z,10.10
2023-03-26T10:31:43.080Z,10.08
2023-03-26T10:35:15.705Z,10.07
2023-03-26T10:38:32.838Z,10.09
2023-03-26T10:41:24.296Z,10.16
2023-03-26T10:44:37.576Z,10.21
2023-03-26T10:47:48.444Z,10.30
2023-03-26T10:50:49.578Z,10.29
2023-03-26T10:53:33.838Z,10.33
2023-03-26T10:56:40.874Z,10.33
2023-03-26T10:59:13.013Z,10.34
2023-03-26T11:01:57.954Z,10.40
2023-03-26T11:04:30.672Z,10.41
2023-03-26T11:07:29.283Z,10.42
2023-03-26T11:10:42.058Z,10.43
2023-03-26T11:13:58.487Z,10.45
2023-03-26T11:16:47.173Z,10.48
2023-03-26T11:19:31.170Z,10.48
2023-03-26T11:22:33.828Z,10.50
2023-03-26T11:25:36.083Z,10.58
2023-03-26T11:28:27.381Z,10.64
2023-03-26T11:31:07.435Z,10.70
2023-03-26T11:34:37.043Z,10.77
2023-03-26T11:36:39.532Z,10.88
2023-03-26T11:39:19.282Z,11.03
2023-03-26T11:41:47.699Z,10.93
2023-03-26T11:44:24.530Z,10.93
2023-03-26T11:47:04.072Z,10.93
2023-03-26T11:49:31.904Z,10.97
2023-03-26T11:51:59.278Z,10.97
2023-03-26T11:54:26.380Z,10.88
2023-03-26T11:57:14.147Z,10.97
2023-03-26T12:00:17.430Z,10.94
2023-03-26T12:02:47.088Z,10.93
2023-03-26T12:05:26.673Z,11.00
2023-03-26T12:08:03.215Z,11.07
2023-03-26T12:10:39.308Z,11.10
2023-03-26T12:13:21.272Z,11.19
2023-03-26T12:15:50.026Z,11.19
2023-03-26T12:18:28.320Z,11.21
2023-03-26T12:21:08.722Z,11.13
2023-03-26T12:24:03.675Z,11.15
2023-03-26T12:26:45.016Z,11.37
2023-03-26T12:29:19.200Z,11.36
2023-03-26T12:32:14.234Z,11.35
2023-03-26T12:34:41.783Z,11.37
2023-03-26T12:37:37.589Z,11.44
2023-03-26T12:40:25.695Z,11.42
2023-03-26T12:44:48.637Z,11.37
2023-03-26T12:47:54.190Z,11.51
2023-03-26T12:48:42.890Z,11.54
2023-03-26T12:51:31.644Z,11.49
2023-03-26T12:54:27.116Z,11.48
2023-03-26T12:57:20.717Z,11.40
2023-03-26T13:00:11.993Z,11.42
2023-03-26T13:02:59.113Z,11.61
2023-03-26T13:05:34.321Z,11.45
2023-03-26T13:08:47.266Z,11.53
2023-03-26T13:11:56.044Z,11.58
2023-03-26T13:15:13.133Z,11.63
2023-03-26T13:18:12.209Z,11.41
2023-03-26T13:21:18.515Z,11.62
2023-03-26T13:24:21.484Z,11.61
2023-03-26T13:27:32.516Z,11.59
2023-03-26T13:30:39.631Z,11.50
2023-03-26T13:33:37.274Z,11.50
2023-03-26T13:36:26.722Z,11.40
2023-03-26T13:39:21.302Z,11.32
2023-03-26T13:42:03.541Z,11.29
2023-03-26T13:44:30.399Z,11.37
2023-03-26T13:47:11.752Z,11.38
2023-03-26T13:49:46.773Z,11.40
2023-03-26T13:53:09.863Z,11.41
2023-03-26T13:56:00.759Z,11.06
2023-03-26T13:59:01.684Z,11.24
2023-03-26T14:01:41.172Z,11.06
2023-03-26T14:04:26.013Z,11.15
2023-03-26T14:07:11.202Z,11.08
2023-03-26T14:09:58.811Z,11.11
2023-03-26T14:13:04.270Z,11.13
2023-03-26T14:15:46.734Z,11.01
2023-03-26T14:18:40.271Z,11.01
2023-03-26T14:21:36.638Z,10.95
2023-03-26T14:24:25.453Z,10.86
2023-03-26T14:27:13.325Z,11.06
2023-03-26T14:30:07.956Z,10.75
2023-03-26T14:32:58.600Z,10.60
2023-03-26T14:35:57.565Z,10.67
2023-03-26T14:38:44.053Z,10.75
2023-03-26T14:41:38.490Z,10.61
2023-03-26T14:44:47.777Z,10.65
2023-03-26T14:47:19.279Z,10.75
2023-03-26T14:50:15.468Z,10.70
2023-03-26T14:53:01.218Z,10.77
2023-03-26T14:55:48.713Z,10.87
2023-03-26T14:58:37.076Z,10.80
2023-03-26T15:01:26.723Z,10.84
2023-03-26T15:04:12.016Z,10.80
2023-03-26T15:07:19.751Z,10.76
2023-03-26T15:09:52.215Z,10.69
2023-03-26T15:13:01.062Z,10.68
2023-03-26T15:16:00.619Z,10.76
2023-03-26T15:18:51.037Z,10.76
2023-03-26T15:21:21.015Z,10.62
2023-03-26T15:24:22.222Z,10.72
2023-03-26T15:27:32.555Z,10.67
2023-03-26T15:30:11.744Z,10.58
2023-03-26T15:33:12.841Z,10.34
2023-03-26T15:36:09.292Z,10.57
2023-03-26T15:39:21.359Z,10.61
2023-03-26T15:42:18.854Z,10.55
2023-03-26T15:44:54.529Z,10.22
2023-03-26T15:47:34.299Z,10.59
2023-03-26T15:50:56.189Z,10.44
2023-03-26T15:53:44.913Z,10.49
2023-03-26T15:56:53.170Z,10.45
2023-03-26T15:59:57.618Z,10.46
2023-03-26T16:02:53.725Z,10.35
2023-03-26T16:05:33.177Z,10.33
2023-03-26T16:08:30.742Z,10.37
2023-03-26T16:11:00.022Z,10.47
2023-03-26T16:13:32.895Z,10.26
2023-03-26T16:16:02.701Z,10.32
2023-03-26T16:18:46.596Z,10.39
2023-03-26T16:21:32.853Z,10.23
2023-03-26T16:24:02.781Z,10.27
2023-03-26T16:27:09.010Z,10.37
2023-03-26T16:30:00.457Z,10.02
2023-03-26T16:32:35.491Z,10.21
2023-03-26T16:35:14.570Z,10.21
2023-03-26T16:37:52.697Z,10.20
2023-03-26T16:40:20.842Z,10.13
2023-03-26T16:43:15.514Z,10.22
2023-03-26T16:46:26.401Z,10.13
2023-03-26T16:49:17.047Z,10.09
2023-03-26T16:52:08.039Z,10.00
2023-03-26T16:54:48.946Z,9.99
2023-03-26T16:57:47.847Z,10.02
2023-03-26T17:01:08.947Z,10.01
2023-03-26T17:04:01.658Z,9.90
2023-03-26T17:06:53.780Z,9.95
2023-03-26T17:09:46.650Z,9.88
2023-03-26T17:12:37.008Z,9.96
2023-03-26T17:15:28.124Z,10.04
2023-03-26T17:18:29.068Z,9.94
2023-03-26T17:21:19.602Z,9.93
2023-03-26T17:24:29.451Z,9.97
2023-03-26T17:27:21.023Z,9.84
2023-03-26T17:30:22.180Z,9.94
2023-03-26T17:33:39.005Z,9.75
2023-03-26T17:36:12.488Z,9.81
2023-03-26T17:38:39.541Z,9.70
2023-03-26T17:41:11.670Z,9.46
2023-03-26T17:43:50.079Z,9.72
2023-03-26T17:46:42.258Z,9.71
2023-03-26T17:49:12.487Z,9.19
2023-03-26T17:51:50.415Z,9.69
2023-03-26T17:55:00.751Z,9.63
2023-03-26T17:58:05.221Z,9.51
2023-03-26T18:00:45.690Z,9.50
2023-03-26T18:03:29.556Z,9.57
2023-03-26T18:06:09.826Z,9.51
2023-03-26T18:09:05.993Z,9.59
2023-03-26T18:12:06.877Z,9.50
2023-03-26T18:14:55.772Z,9.58
2023-03-26T18:17:25.468Z,9.54
2023-03-26T18:20:02.262Z,9.64
2023-03-26T18:22:30.855Z,9.42
2023-03-26T18:25:03.808Z,9.48
2023-03-26T18:27:39.256Z,9.47
2023-03-26T18:30:23.544Z,9.25
2023-03-26T18:33:15.873Z,9.21
2023-03-26T18:35:54.387Z,9.21
2023-03-26T18:38:35.414Z,9.14
2023-03-26T18:41:08.104Z,9.14
2023-03-26T18:43:44.574Z,8.92
2023-03-26T18:46:14.525Z,8.90
2023-03-26T18:48:42.372Z,8.84
2023-03-26T18:51:09.935Z,8.68
2023-03-26T18:53:49.168Z,8.76
2023-03-26T18:56:35.617Z,8.64
2023-03-26T18:59:06.990Z,8.88
2023-03-26T19:01:37.422Z,8.73
2023-03-26T19:04:07.992Z,8.58
2023-03-26T19:06:40.001Z,8.68
2023-03-26T19:09:24.214Z,8.17
2023-03-26T19:12:14.456Z,8.51
2023-03-26T19:15:02.102Z,8.36
2023-03-26T19:17:38.458Z,8.52
2023-03-26T19:20:12.621Z,8.51
2023-03-26T19:22:42.333Z,8.59
2023-03-26T19:25:36.812Z,8.44
2023-03-26T19:28:05.334Z,8.24
2023-03-26T19:30:39.238Z,8.19
2023-03-26T19:33:20.697Z,8.21
2023-03-26T19:36:15.070Z,8.33
2023-03-26T19:38:54.999Z,8.29
2023-03-26T19:41:37.654Z,8.29
2023-03-26T19:44:30.593Z,8.08
2023-03-26T19:47:17.737Z,8.05
2023-03-26T19:49:51.146Z,8.48
2023-03-26T19:52:47.413Z,8.32
2023-03-26T19:55:27.116Z,8.27
2023-03-26T19:57:54.128Z,8.26
2023-03-26T20:00:21.971Z,8.28
2023-03-26T20:02:49.645Z,8.28
2023-03-26T20:05:23.106Z,8.28
2023-03-26T20:07:50.830Z,8.24
2023-03-26T20:10:18.343Z,8.23
2023-03-26T20:12:45.584Z,8.24
2023-03-26T20:15:22.321Z,8.18
2023-03-26T20:17:52.408Z,8.22
2023-03-26T20:20:19.795Z,8.11
2023-03-26T20:22:47.506Z,8.27
2023-03-26T20:25:21.691Z,7.81
2023-03-26T20:27:48.959Z,8.20
2023-03-26T20:30:22.273Z,8.10
2023-03-26T20:33:12.772Z,7.87
2023-03-26T20:35:41.555Z,8.10
2023-03-26T20:38:12.028Z,8.09
2023-03-26T20:40:40.209Z,8.16
2023-03-26T20:43:13.438Z,7.91
2023-03-26T20:45:41.106Z,7.56
2023-03-26T20:48:10.406Z,8.00
2023-03-26T20:50:50.393Z,7.85
2023-03-26T20:53:19.056Z,7.88
2023-03-26T20:55:47.665Z,7.92
2023-03-26T20:58:31.042Z,7.93
2023-03-26T21:01:01.924Z,7.94
2023-03-26T21:03:29.465Z,7.53
2023-03-26T21:06:01.693Z,7.70
2023-03-26T21:08:35.565Z,7.83
2023-03-26T21:11:05.892Z,7.68
2023-03-26T21:13:58.098Z,8.02
2023-03-26T21:16:25.716Z,7.62
2023-03-26T21:18:53.434Z,7.70
2023-03-26T21:21:41.884Z,7.79
2023-03-26T21:24:33.265Z,7.70
2023-03-26T21:27:09.703Z,7.56
2023-03-26T21:29:37.582Z,7.39
2023-03-26T21:32:05.808Z,7.47
2023-03-26T21:34:33.595Z,7.52
2023-03-26T21:37:02.032Z,7.53
2023-03-26T21:39:29.956Z,7.49
2023-03-26T21:42:04.909Z,7.58
2023-03-26T21:44:34.294Z,7.54
2023-03-26T21:47:01.786Z,7.63
2023-03-26T21:49:29.365Z,7.56
2023-03-26T21:51:56.844Z,7.56
2023-03-26T21:54:30.856Z,7.38
2023-03-26T21:57:19.894Z,7.36
2023-03-26T22:00:16.361Z,7.30
2023-03-26T22:06:10.576Z,7.23
2023-03-26T22:08:41.454Z,7.26
2023-03-26T22:11:11.258Z,7.16
2023-03-26T22:13:38.983Z,7.08
2023-03-26T22:16:08.571Z,6.94
2023-03-26T22:18:35.574Z,6.90
2023-03-26T22:21:03.043Z,6.86
2023-03-26T22:23:36.338Z,6.82
2023-03-26T22:26:05.906Z,6.83
2023-03-26T22:28:33.187Z,6.83
2023-03-26T22:31:07.238Z,6.79
2023-03-26T22:33:36.064Z,6.79
2023-03-26T22:36:03.217Z,6.76
2023-03-26T22:38:30.727Z,6.77
2023-03-26T22:40:58.443Z,6.81
2023-03-26T22:43:26.164Z,6.81
2023-03-26T22:45:54.739Z,6.75
2023-03-26T22:48:24.079Z,6.77
2023-03-26T22:51:03.264Z,6.73
2023-03-26T22:53:31.706Z,6.78
2023-03-26T22:56:00.034Z,6.72
2023-03-26T22:58:28.205Z,6.77
2023-03-26T23:01:10.617Z,6.72
2023-03-26T23:03:39.331Z,6.71
2023-03-26T23:06:10.669Z,6.66
2023-03-26T23:08:38.568Z,6.69
2023-03-26T23:11:14.185Z,6.77
2023-03-26T23:13:42.643Z,6.75
2023-03-26T23:16:11.359Z,6.75
2023-03-26T23:18:39.447Z,6.74
2023-03-26T23:21:12.717Z,6.77
2023-03-26T23:23:39.953Z,6.74
2023-03-26T23:26:07.317Z,6.69
2023-03-26T23:28:35.438Z,6.77
2023-03-26T23:31:06.284Z,6.79
2023-03-26T23:33:36.396Z,6.79
2023-03-26T23:36:08.790Z,6.78
2023-03-26T23:38:43.688Z,6.83
2023-03-26T23:41:15.116Z,6.80
2023-03-26T23:43:53.811Z,6.82
2023-03-26T23:46:33.170Z,6.79
2023-03-26T23:49:03.398Z,6.80
2023-03-26T23:51:31.450Z,6.80
2023-03-26T23:53:59.727Z,6.80
2023-03-26T23:56:32.699Z,6.82
2023-03-26T23:59:00.545Z,6.74
